sensor_id;sensor_type;location;lat;lon;timestamp;P1;durP1;ratioP1;P2;durP2;ratioP2
45049;SDS011;61798;48.048;-1.928;2022-11-24T00:01:06;29.52;;;9.88;;
45049;SDS011;61798;48.048;-1.928;2022-11-24T00:03:15;30.70;;;9.38;;
45049;SDS011;61798;48.048;-1.928;2022-11-24T00:05:22;25.65;;;11.63;;
45049;SDS011;61798;48.048;-1.928;2022-11-24T00:07:30;21.58;;;7.18;;
45049;SDS011;61798;48.048;-1.928;2022-11-24T00:09:38;21.50;;;7.13;;
45049;SDS011;61798;48.048;-1.928;2022-11-24T00:11:44;13.50;;;4.13;;
45049;SDS011;61798;48.048;-1.928;2022-11-24T00:13:51;19.27;;;5.88;;
45049;SDS011;61798;48.048;-1.928;2022-11-24T00:16:06;17.67;;;4.50;;
45049;SDS011;61798;48.048;-1.928;2022-11-24T00:18:16;15.88;;;4.68;;
45049;SDS011;61798;48.048;-1.928;2022-11-24T00:20:23;24.98;;;10.65;;
45049;SDS011;61798;48.048;-1.928;2022-11-24T00:22:30;26.08;;;12.27;;
45049;SDS011;61798;48.048;-1.928;2022-11-24T00:24:37;18.95;;;7.95;;
45049;SDS011;61798;48.048;-1.928;2022-11-24T00:26:45;22.30;;;7.80;;
45049;SDS011;61798;48.048;-1.928;2022-11-24T00:28:53;16.98;;;5.38;;
45049;SDS011;61798;48.048;-1.928;2022-11-24T00:31:02;12.73;;;6.00;;
45049;SDS011;61798;48.048;-1.928;2022-11-24T00:33:09;17.77;;;5.43;;
45049;SDS011;61798;48.048;-1.928;2022-11-24T00:35:17;15.95;;;4.93;;
45049;SDS011;61798;48.048;-1.928;2022-11-24T00:37:23;18.63;;;4.93;;
45049;SDS011;61798;48.048;-1.928;2022-11-24T00:39:29;15.35;;;3.55;;
45049;SDS011;61798;48.048;-1.928;2022-11-24T00:41:36;14.10;;;3.30;;
45049;SDS011;61798;48.048;-1.928;2022-11-24T00:43:43;17.15;;;3.05;;
45049;SDS011;61798;48.048;-1.928;2022-11-24T00:45:51;11.88;;;2.35;;
45049;SDS011;61798;48.048;-1.928;2022-11-24T00:47:59;11.52;;;2.30;;
45049;SDS011;61798;48.048;-1.928;2022-11-24T00:50:06;14.15;;;2.75;;
45049;SDS011;61798;48.048;-1.928;2022-11-24T00:52:12;12.13;;;2.30;;
45049;SDS011;61798;48.048;-1.928;2022-11-24T00:54:20;10.00;;;2.15;;
45049;SDS011;61798;48.048;-1.928;2022-11-24T00:56:28;13.48;;;2.58;;
45049;SDS011;61798;48.048;-1.928;2022-11-24T00:58:35;16.00;;;3.33;;
45049;SDS011;61798;48.048;-1.928;2022-11-24T01:00:43;17.73;;;6.18;;
45049;SDS011;61798;48.048;-1.928;2022-11-24T01:02:50;14.27;;;5.13;;
45049;SDS011;61798;48.048;-1.928;2022-11-24T01:04:58;11.70;;;3.70;;
45049;SDS011;61798;48.048;-1.928;2022-11-24T01:07:06;14.25;;;2.85;;
45049;SDS011;61798;48.048;-1.928;2022-11-24T01:09:13;15.57;;;2.15;;
45049;SDS011;61798;48.048;-1.928;2022-11-24T01:11:22;15.38;;;2.60;;
45049;SDS011;61798;48.048;-1.928;2022-11-24T01:13:31;13.73;;;2.45;;
45049;SDS011;61798;48.048;-1.928;2022-11-24T01:15:39;12.48;;;2.28;;
45049;SDS011;61798;48.048;-1.928;2022-11-24T01:17:45;18.10;;;2.33;;
45049;SDS011;61798;48.048;-1.928;2022-11-24T01:19:52;13.63;;;2.30;;
45049;SDS011;61798;48.048;-1.928;2022-11-24T01:22:00;16.58;;;3.15;;
45049;SDS011;61798;48.048;-1.928;2022-11-24T01:24:08;14.27;;;2.60;;
45049;SDS011;61798;48.048;-1.928;2022-11-24T01:26:17;17.95;;;2.67;;
45049;SDS011;61798;48.048;-1.928;2022-11-24T01:28:26;13.98;;;2.45;;
45049;SDS011;61798;48.048;-1.928;2022-11-24T01:30:34;17.00;;;2.42;;
45049;SDS011;61798;48.048;-1.928;2022-11-24T01:32:42;12.70;;;2.35;;
45049;SDS011;61798;48.048;-1.928;2022-11-24T01:34:50;20.15;;;3.03;;
45049;SDS011;61798;48.048;-1.928;2022-11-24T01:36:57;17.17;;;2.83;;
45049;SDS011;61798;48.048;-1.928;2022-11-24T01:39:05;21.35;;;3.50;;
45049;SDS011;61798;48.048;-1.928;2022-11-24T01:41:22;26.15;;;3.08;;
45049;SDS011;61798;48.048;-1.928;2022-11-24T01:43:31;19.85;;;2.80;;
45049;SDS011;61798;48.048;-1.928;2022-11-24T01:45:40;26.83;;;3.88;;
45049;SDS011;61798;48.048;-1.928;2022-11-24T01:47:48;17.65;;;3.10;;
45049;SDS011;61798;48.048;-1.928;2022-11-24T01:49:56;18.27;;;3.13;;
45049;SDS011;61798;48.048;-1.928;2022-11-24T01:52:10;30.27;;;3.67;;
45049;SDS011;61798;48.048;-1.928;2022-11-24T01:54:27;16.48;;;2.95;;
45049;SDS011;61798;48.048;-1.928;2022-11-24T01:56:48;27.73;;;3.20;;
45049;SDS011;61798;48.048;-1.928;2022-11-24T01:59:00;27.35;;;3.40;;
45049;SDS011;61798;48.048;-1.928;2022-11-24T02:01:10;26.83;;;3.38;;
45049;SDS011;61798;48.048;-1.928;2022-11-24T02:03:19;27.42;;;3.92;;
45049;SDS011;61798;48.048;-1.928;2022-11-24T02:05:35;26.02;;;3.35;;
45049;SDS011;61798;48.048;-1.928;2022-11-24T02:07:43;17.75;;;3.65;;
45049;SDS011;61798;48.048;-1.928;2022-11-24T02:09:56;26.50;;;3.90;;
45049;SDS011;61798;48.048;-1.928;2022-11-24T02:12:07;23.80;;;3.25;;
45049;SDS011;61798;48.048;-1.928;2022-11-24T02:14:14;22.23;;;2.92;;
45049;SDS011;61798;48.048;-1.928;2022-11-24T02:16:24;26.63;;;3.28;;
45049;SDS011;61798;48.048;-1.928;2022-11-24T02:18:32;17.85;;;3.50;;
45049;SDS011;61798;48.048;-1.928;2022-11-24T02:20:39;22.35;;;3.33;;
45049;SDS011;61798;48.048;-1.928;2022-11-24T02:25:48;17.48;;;3.38;;
45049;SDS011;61798;48.048;-1.928;2022-11-24T02:28:04;20.95;;;3.50;;
45049;SDS011;61798;48.048;-1.928;2022-11-24T02:30:14;25.13;;;3.75;;
45049;SDS011;61798;48.048;-1.928;2022-11-24T02:32:22;22.05;;;3.28;;
45049;SDS011;61798;48.048;-1.928;2022-11-24T02:34:30;14.63;;;3.20;;
45049;SDS011;61798;48.048;-1.928;2022-11-24T02:36:37;21.05;;;2.70;;
45049;SDS011;61798;48.048;-1.928;2022-11-24T02:38:44;17.58;;;2.85;;
45049;SDS011;61798;48.048;-1.928;2022-11-24T02:40:51;19.40;;;3.35;;
45049;SDS011;61798;48.048;-1.928;2022-11-24T02:43:03;21.30;;;2.78;;
45049;SDS011;61798;48.048;-1.928;2022-11-24T02:45:15;16.48;;;2.90;;
45049;SDS011;61798;48.048;-1.928;2022-11-24T02:47:23;21.42;;;3.30;;
45049;SDS011;61798;48.048;-1.928;2022-11-24T02:49:30;21.17;;;3.25;;
45049;SDS011;61798;48.048;-1.928;2022-11-24T02:51:37;20.42;;;3.40;;
45049;SDS011;61798;48.048;-1.928;2022-11-24T02:53:45;21.08;;;3.47;;
45049;SDS011;61798;48.048;-1.928;2022-11-24T02:55:52;18.80;;;3.92;;
45049;SDS011;61798;48.048;-1.928;2022-11-24T02:58:00;19.65;;;3.30;;
45049;SDS011;61798;48.048;-1.928;2022-11-24T03:00:07;20.08;;;3.22;;
45049;SDS011;61798;48.048;-1.928;2022-11-24T03:02:15;18.95;;;3.67;;
45049;SDS011;61798;48.048;-1.928;2022-11-24T03:04:22;14.57;;;3.35;;
45049;SDS011;61798;48.048;-1.928;2022-11-24T03:06:31;18.75;;;3.10;;
45049;SDS011;61798;48.048;-1.928;2022-11-24T03:08:37;23.55;;;3.15;;
45049;SDS011;61798;48.048;-1.928;2022-11-24T03:10:45;14.05;;;2.67;;
45049;SDS011;61798;48.048;-1.928;2022-11-24T03:12:52;21.25;;;3.33;;
45049;SDS011;61798;48.048;-1.928;2022-11-24T03:14:59;22.08;;;3.97;;
45049;SDS011;61798;48.048;-1.928;2022-11-24T03:17:07;15.45;;;3.30;;
45049;SDS011;61798;48.048;-1.928;2022-11-24T03:19:15;23.73;;;3.25;;
45049;SDS011;61798;48.048;-1.928;2022-11-24T03:21:22;16.73;;;3.00;;
45049;SDS011;61798;48.048;-1.928;2022-11-24T03:23:30;18.70;;;3.03;;
45049;SDS011;61798;48.048;-1.928;2022-11-24T03:25:37;23.83;;;3.22;;
45049;SDS011;61798;48.048;-1.928;2022-11-24T03:27:46;21.80;;;3.30;;
45049;SDS011;61798;48.048;-1.928;2022-11-24T03:29:54;25.38;;;4.13;;
45049;SDS011;61798;48.048;-1.928;2022-11-24T03:32:03;25.17;;;3.75;;
45049;SDS011;61798;48.048;-1.928;2022-11-24T03:34:23;20.02;;;3.88;;
45049;SDS011;61798;48.048;-1.928;2022-11-24T03:36:30;26.88;;;3.58;;
45049;SDS011;61798;48.048;-1.928;2022-11-24T03:38:37;25.75;;;3.15;;
45049;SDS011;61798;48.048;-1.928;2022-11-24T03:40:45;35.28;;;3.90;;
45049;SDS011;61798;48.048;-1.928;2022-11-24T03:42:52;20.80;;;3.28;;
45049;SDS011;61798;48.048;-1.928;2022-11-24T03:44:58;21.30;;;3.60;;
45049;SDS011;61798;48.048;-1.928;2022-11-24T03:47:05;22.65;;;3.15;;
45049;SDS011;61798;48.048;-1.928;2022-11-24T03:49:12;32.15;;;4.00;;
45049;SDS011;61798;48.048;-1.928;2022-11-24T03:51:20;32.10;;;4.00;;
45049;SDS011;61798;48.048;-1.928;2022-11-24T03:53:28;20.50;;;3.70;;
45049;SDS011;61798;48.048;-1.928;2022-11-24T03:55:37;22.98;;;4.03;;
45049;SDS011;61798;48.048;-1.928;2022-11-24T03:57:44;20.77;;;3.30;;
45049;SDS011;61798;48.048;-1.928;2022-11-24T03:59:52;23.05;;;3.38;;
45049;SDS011;61798;48.048;-1.928;2022-11-24T04:01:59;18.85;;;3.45;;
45049;SDS011;61798;48.048;-1.928;2022-11-24T04:04:09;25.23;;;3.35;;
45049;SDS011;61798;48.048;-1.928;2022-11-24T04:06:17;25.13;;;4.13;;
45049;SDS011;61798;48.048;-1.928;2022-11-24T04:08:24;27.40;;;3.58;;
45049;SDS011;61798;48.048;-1.928;2022-11-24T04:10:35;28.13;;;3.47;;
45049;SDS011;61798;48.048;-1.928;2022-11-24T04:12:43;28.15;;;3.67;;
45049;SDS011;61798;48.048;-1.928;2022-11-24T04:14:51;27.60;;;4.43;;
45049;SDS011;61798;48.048;-1.928;2022-11-24T04:16:58;36.10;;;4.13;;
45049;SDS011;61798;48.048;-1.928;2022-11-24T04:19:04;20.52;;;4.10;;
45049;SDS011;61798;48.048;-1.928;2022-11-24T04:21:12;22.35;;;3.50;;
45049;SDS011;61798;48.048;-1.928;2022-11-24T04:23:19;26.92;;;3.58;;
45049;SDS011;61798;48.048;-1.928;2022-11-24T04:25:27;26.15;;;3.67;;
45049;SDS011;61798;48.048;-1.928;2022-11-24T04:27:35;18.10;;;4.05;;
45049;SDS011;61798;48.048;-1.928;2022-11-24T04:29:43;16.92;;;3.83;;
45049;SDS011;61798;48.048;-1.928;2022-11-24T04:31:50;19.52;;;3.50;;
45049;SDS011;61798;48.048;-1.928;2022-11-24T04:33:57;17.42;;;3.08;;
45049;SDS011;61798;48.048;-1.928;2022-11-24T04:36:05;23.88;;;4.10;;
45049;SDS011;61798;48.048;-1.928;2022-11-24T04:38:15;20.90;;;3.35;;
45049;SDS011;61798;48.048;-1.928;2022-11-24T04:40:23;21.70;;;3.25;;
45049;SDS011;61798;48.048;-1.928;2022-11-24T04:42:30;28.27;;;3.70;;
45049;SDS011;61798;48.048;-1.928;2022-11-24T04:44:38;25.27;;;3.50;;
45049;SDS011;61798;48.048;-1.928;2022-11-24T04:46:45;26.30;;;4.20;;
45049;SDS011;61798;48.048;-1.928;2022-11-24T04:48:52;26.40;;;3.50;;
45049;SDS011;61798;48.048;-1.928;2022-11-24T04:50:58;22.45;;;3.88;;
45049;SDS011;61798;48.048;-1.928;2022-11-24T04:53:09;27.67;;;4.38;;
45049;SDS011;61798;48.048;-1.928;2022-11-24T04:55:18;31.52;;;4.05;;
45049;SDS011;61798;48.048;-1.928;2022-11-24T04:57:25;31.48;;;3.92;;
45049;SDS011;61798;48.048;-1.928;2022-11-24T04:59:32;29.50;;;4.50;;
45049;SDS011;61798;48.048;-1.928;2022-11-24T05:01:44;27.90;;;4.22;;
45049;SDS011;61798;48.048;-1.928;2022-11-24T05:03:55;21.05;;;3.40;;
45049;SDS011;61798;48.048;-1.928;2022-11-24T05:06:03;23.92;;;3.58;;
45049;SDS011;61798;48.048;-1.928;2022-11-24T05:08:10;24.17;;;4.20;;
45049;SDS011;61798;48.048;-1.928;2022-11-24T05:10:17;22.67;;;3.20;;
45049;SDS011;61798;48.048;-1.928;2022-11-24T05:12:43;32.63;;;3.47;;
45049;SDS011;61798;48.048;-1.928;2022-11-24T05:14:51;26.75;;;3.75;;
45049;SDS011;61798;48.048;-1.928;2022-11-24T05:16:58;22.05;;;4.30;;
45049;SDS011;61798;48.048;-1.928;2022-11-24T05:19:05;30.42;;;4.47;;
45049;SDS011;61798;48.048;-1.928;2022-11-24T05:21:12;28.20;;;3.65;;
45049;SDS011;61798;48.048;-1.928;2022-11-24T05:23:20;27.23;;;3.85;;
45049;SDS011;61798;48.048;-1.928;2022-11-24T05:25:27;23.20;;;3.63;;
45049;SDS011;61798;48.048;-1.928;2022-11-24T05:27:33;26.30;;;3.53;;
45049;SDS011;61798;48.048;-1.928;2022-11-24T05:29:39;35.70;;;4.47;;
45049;SDS011;61798;48.048;-1.928;2022-11-24T05:31:48;36.60;;;4.55;;
45049;SDS011;61798;48.048;-1.928;2022-11-24T05:33:55;29.08;;;4.13;;
45049;SDS011;61798;48.048;-1.928;2022-11-24T05:36:05;34.88;;;4.63;;
45049;SDS011;61798;48.048;-1.928;2022-11-24T05:38:12;31.75;;;3.78;;
45049;SDS011;61798;48.048;-1.928;2022-11-24T05:40:19;24.65;;;4.22;;
45049;SDS011;61798;48.048;-1.928;2022-11-24T05:42:27;41.42;;;5.72;;
45049;SDS011;61798;48.048;-1.928;2022-11-24T05:44:47;39.95;;;5.03;;
45049;SDS011;61798;48.048;-1.928;2022-11-24T05:46:55;29.38;;;4.15;;
45049;SDS011;61798;48.048;-1.928;2022-11-24T05:49:02;20.67;;;3.60;;
45049;SDS011;61798;48.048;-1.928;2022-11-24T05:51:10;23.42;;;3.58;;
45049;SDS011;61798;48.048;-1.928;2022-11-24T05:53:17;29.38;;;4.32;;
45049;SDS011;61798;48.048;-1.928;2022-11-24T05:55:25;25.17;;;4.07;;
45049;SDS011;61798;48.048;-1.928;2022-11-24T05:57:32;26.05;;;3.90;;
45049;SDS011;61798;48.048;-1.928;2022-11-24T05:59:40;32.22;;;4.63;;
45049;SDS011;61798;48.048;-1.928;2022-11-24T06:01:49;24.75;;;4.00;;
45049;SDS011;61798;48.048;-1.928;2022-11-24T06:03:55;27.50;;;4.10;;
45049;SDS011;61798;48.048;-1.928;2022-11-24T06:06:03;35.58;;;4.90;;
45049;SDS011;61798;48.048;-1.928;2022-11-24T06:08:10;43.47;;;5.07;;
45049;SDS011;61798;48.048;-1.928;2022-11-24T06:10:19;29.45;;;5.00;;
45049;SDS011;61798;48.048;-1.928;2022-11-24T06:12:28;27.40;;;3.72;;
45049;SDS011;61798;48.048;-1.928;2022-11-24T06:14:35;29.92;;;4.50;;
45049;SDS011;61798;48.048;-1.928;2022-11-24T06:16:44;24.88;;;4.00;;
45049;SDS011;61798;48.048;-1.928;2022-11-24T06:18:52;34.90;;;4.90;;
45049;SDS011;61798;48.048;-1.928;2022-11-24T06:21:01;30.67;;;4.03;;
45049;SDS011;61798;48.048;-1.928;2022-11-24T06:23:09;36.85;;;4.78;;
45049;SDS011;61798;48.048;-1.928;2022-11-24T06:25:16;35.42;;;5.05;;
45049;SDS011;61798;48.048;-1.928;2022-11-24T06:27:24;34.70;;;4.53;;
45049;SDS011;61798;48.048;-1.928;2022-11-24T06:29:32;27.15;;;4.15;;
45049;SDS011;61798;48.048;-1.928;2022-11-24T06:31:41;34.67;;;4.53;;
45049;SDS011;61798;48.048;-1.928;2022-11-24T06:33:51;32.80;;;4.93;;
45049;SDS011;61798;48.048;-1.928;2022-11-24T06:36:04;38.42;;;9.13;;
45049;SDS011;61798;48.048;-1.928;2022-11-24T06:38:14;38.83;;;9.00;;
45049;SDS011;61798;48.048;-1.928;2022-11-24T06:40:22;39.25;;;10.00;;
45049;SDS011;61798;48.048;-1.928;2022-11-24T06:42:29;36.50;;;9.45;;
45049;SDS011;61798;48.048;-1.928;2022-11-24T06:44:37;38.78;;;8.75;;
45049;SDS011;61798;48.048;-1.928;2022-11-24T06:46:45;36.10;;;8.05;;
45049;SDS011;61798;48.048;-1.928;2022-11-24T06:48:52;37.33;;;6.28;;
45049;SDS011;61798;48.048;-1.928;2022-11-24T06:51:00;34.28;;;7.05;;
45049;SDS011;61798;48.048;-1.928;2022-11-24T06:53:10;30.63;;;5.50;;
45049;SDS011;61798;48.048;-1.928;2022-11-24T06:55:18;34.38;;;8.60;;
45049;SDS011;61798;48.048;-1.928;2022-11-24T06:57:26;36.13;;;11.10;;
45049;SDS011;61798;48.048;-1.928;2022-11-24T06:59:36;36.40;;;9.23;;
45049;SDS011;61798;48.048;-1.928;2022-11-24T07:01:44;32.95;;;6.32;;
45049;SDS011;61798;48.048;-1.928;2022-11-24T07:03:52;36.80;;;6.70;;
45049;SDS011;61798;48.048;-1.928;2022-11-24T07:06:01;43.00;;;5.82;;
45049;SDS011;61798;48.048;-1.928;2022-11-24T07:08:07;29.25;;;5.93;;
45049;SDS011;61798;48.048;-1.928;2022-11-24T07:10:14;31.65;;;5.80;;
45049;SDS011;61798;48.048;-1.928;2022-11-24T07:12:21;33.85;;;5.32;;
45049;SDS011;61798;48.048;-1.928;2022-11-24T07:14:29;35.40;;;4.82;;
45049;SDS011;61798;48.048;-1.928;2022-11-24T07:16:37;33.25;;;4.82;;
45049;SDS011;61798;48.048;-1.928;2022-11-24T07:18:46;27.15;;;4.20;;
45049;SDS011;61798;48.048;-1.928;2022-11-24T07:20:57;40.60;;;4.20;;
45049;SDS011;61798;48.048;-1.928;2022-11-24T07:23:04;27.85;;;3.50;;
45049;SDS011;61798;48.048;-1.928;2022-11-24T07:25:13;46.35;;;4.40;;
45049;SDS011;61798;48.048;-1.928;2022-11-24T07:27:20;28.05;;;4.68;;
45049;SDS011;61798;48.048;-1.928;2022-11-24T07:29:28;25.88;;;4.45;;
45049;SDS011;61798;48.048;-1.928;2022-11-24T07:31:35;32.60;;;4.18;;
45049;SDS011;61798;48.048;-1.928;2022-11-24T07:33:46;40.47;;;5.00;;
45049;SDS011;61798;48.048;-1.928;2022-11-24T07:35:58;31.70;;;4.28;;
45049;SDS011;61798;48.048;-1.928;2022-11-24T07:38:06;41.15;;;4.50;;
45049;SDS011;61798;48.048;-1.928;2022-11-24T07:40:13;29.52;;;4.53;;
45049;SDS011;61798;48.048;-1.928;2022-11-24T07:42:20;29.85;;;4.53;;
45049;SDS011;61798;48.048;-1.928;2022-11-24T07:44:28;39.45;;;5.10;;
45049;SDS011;61798;48.048;-1.928;2022-11-24T07:46:37;34.70;;;4.55;;
45049;SDS011;61798;48.048;-1.928;2022-11-24T07:48:43;33.58;;;5.00;;
45049;SDS011;61798;48.048;-1.928;2022-11-24T07:50:51;32.67;;;4.40;;
45049;SDS011;61798;48.048;-1.928;2022-11-24T07:53:02;30.40;;;4.13;;
45049;SDS011;61798;48.048;-1.928;2022-11-24T07:55:08;22.75;;;4.28;;
45049;SDS011;61798;48.048;-1.928;2022-11-24T07:57:15;33.60;;;4.30;;
45049;SDS011;61798;48.048;-1.928;2022-11-24T07:59:24;31.95;;;4.53;;
45049;SDS011;61798;48.048;-1.928;2022-11-24T08:01:38;30.30;;;5.03;;
45049;SDS011;61798;48.048;-1.928;2022-11-24T08:03:47;34.17;;;4.10;;
45049;SDS011;61798;48.048;-1.928;2022-11-24T08:05:56;41.22;;;4.97;;
45049;SDS011;61798;48.048;-1.928;2022-11-24T08:08:05;26.92;;;4.03;;
45049;SDS011;61798;48.048;-1.928;2022-11-24T08:10:13;30.50;;;4.55;;
45049;SDS011;61798;48.048;-1.928;2022-11-24T08:12:21;23.70;;;3.65;;
45049;SDS011;61798;48.048;-1.928;2022-11-24T08:14:32;36.67;;;4.80;;
45049;SDS011;61798;48.048;-1.928;2022-11-24T08:16:39;35.13;;;5.35;;
45049;SDS011;61798;48.048;-1.928;2022-11-24T08:18:50;34.90;;;4.18;;
45049;SDS011;61798;48.048;-1.928;2022-11-24T08:21:00;39.45;;;5.05;;
45049;SDS011;61798;48.048;-1.928;2022-11-24T08:23:08;24.65;;;3.58;;
45049;SDS011;61798;48.048;-1.928;2022-11-24T08:25:14;38.20;;;4.78;;
45049;SDS011;61798;48.048;-1.928;2022-11-24T08:27:23;37.50;;;4.95;;
45049;SDS011;61798;48.048;-1.928;2022-11-24T08:29:30;32.65;;;4.82;;
45049;SDS011;61798;48.048;-1.928;2022-11-24T08:31:39;37.67;;;4.28;;
45049;SDS011;61798;48.048;-1.928;2022-11-24T08:33:46;27.42;;;4.15;;
45049;SDS011;61798;48.048;-1.928;2022-11-24T08:35:53;29.63;;;3.83;;
45049;SDS011;61798;48.048;-1.928;2022-11-24T08:38:01;40.15;;;3.92;;
45049;SDS011;61798;48.048;-1.928;2022-11-24T08:40:09;29.00;;;4.63;;
45049;SDS011;61798;48.048;-1.928;2022-11-24T08:42:17;24.92;;;4.22;;
45049;SDS011;61798;48.048;-1.928;2022-11-24T08:44:24;23.33;;;4.15;;
45049;SDS011;61798;48.048;-1.928;2022-11-24T08:46:34;33.42;;;5.30;;
45049;SDS011;61798;48.048;-1.928;2022-11-24T08:48:42;39.50;;;4.85;;
45049;SDS011;61798;48.048;-1.928;2022-11-24T08:50:57;40.30;;;4.90;;
45049;SDS011;61798;48.048;-1.928;2022-11-24T08:53:05;35.20;;;4.55;;
45049;SDS011;61798;48.048;-1.928;2022-11-24T08:55:12;34.40;;;5.03;;
45049;SDS011;61798;48.048;-1.928;2022-11-24T08:57:20;38.80;;;6.07;;
45049;SDS011;61798;48.048;-1.928;2022-11-24T08:59:28;36.00;;;5.68;;
45049;SDS011;61798;48.048;-1.928;2022-11-24T09:01:35;42.38;;;4.35;;
45049;SDS011;61798;48.048;-1.928;2022-11-24T09:03:43;31.15;;;5.30;;
45049;SDS011;61798;48.048;-1.928;2022-11-24T09:05:52;33.47;;;4.63;;
45049;SDS011;61798;48.048;-1.928;2022-11-24T09:08:00;34.08;;;4.65;;
45049;SDS011;61798;48.048;-1.928;2022-11-24T09:10:07;31.58;;;4.68;;
45049;SDS011;61798;48.048;-1.928;2022-11-24T09:12:14;34.90;;;5.90;;
45049;SDS011;61798;48.048;-1.928;2022-11-24T09:14:22;27.77;;;4.40;;
45049;SDS011;61798;48.048;-1.928;2022-11-24T09:16:31;27.35;;;4.90;;
45049;SDS011;61798;48.048;-1.928;2022-11-24T09:18:38;36.55;;;4.63;;
45049;SDS011;61798;48.048;-1.928;2022-11-24T09:20:47;34.83;;;4.40;;
45049;SDS011;61798;48.048;-1.928;2022-11-24T09:22:54;39.70;;;5.70;;
45049;SDS011;61798;48.048;-1.928;2022-11-24T09:25:03;38.13;;;5.50;;
45049;SDS011;61798;48.048;-1.928;2022-11-24T09:27:11;27.27;;;3.78;;
45049;SDS011;61798;48.048;-1.928;2022-11-24T09:29:18;39.05;;;5.13;;
45049;SDS011;61798;48.048;-1.928;2022-11-24T09:31:28;26.10;;;4.47;;
45049;SDS011;61798;48.048;-1.928;2022-11-24T09:33:40;40.35;;;4.93;;
45049;SDS011;61798;48.048;-1.928;2022-11-24T09:35:48;33.75;;;5.40;;
45049;SDS011;61798;48.048;-1.928;2022-11-24T09:37:56;34.67;;;4.70;;
45049;SDS011;61798;48.048;-1.928;2022-11-24T09:40:03;30.75;;;4.20;;
45049;SDS011;61798;48.048;-1.928;2022-11-24T09:52:43;33.08;;;4.53;;
45049;SDS011;61798;48.048;-1.928;2022-11-24T09:55:42;32.78;;;4.75;;
45049;SDS011;61798;48.048;-1.928;2022-11-24T09:58:48;42.15;;;5.45;;
45049;SDS011;61798;48.048;-1.928;2022-11-24T10:00:52;39.33;;;5.07;;
45049;SDS011;61798;48.048;-1.928;2022-11-24T10:03:02;34.42;;;4.70;;
45049;SDS011;61798;48.048;-1.928;2022-11-24T10:05:10;36.60;;;4.35;;
45049;SDS011;61798;48.048;-1.928;2022-11-24T10:10:27;43.97;;;5.53;;
45049;SDS011;61798;48.048;-1.928;2022-11-24T10:21:41;37.38;;;5.00;;
45049;SDS011;61798;48.048;-1.928;2022-11-24T10:26:39;41.08;;;5.13;;
45049;SDS011;61798;48.048;-1.928;2022-11-24T10:28:57;33.92;;;5.00;;
45049;SDS011;61798;48.048;-1.928;2022-11-24T10:33:36;35.08;;;4.70;;
45049;SDS011;61798;48.048;-1.928;2022-11-24T10:40:43;32.85;;;5.00;;
45049;SDS011;61798;48.048;-1.928;2022-11-24T10:42:56;25.90;;;4.72;;
45049;SDS011;61798;48.048;-1.928;2022-11-24T10:45:16;23.75;;;3.78;;
45049;SDS011;61798;48.048;-1.928;2022-11-24T10:47:30;27.10;;;3.88;;
45049;SDS011;61798;48.048;-1.928;2022-11-24T10:49:38;24.45;;;3.85;;
45049;SDS011;61798;48.048;-1.928;2022-11-24T10:54:22;29.08;;;4.32;;
45049;SDS011;61798;48.048;-1.928;2022-11-24T10:56:39;34.45;;;4.05;;
45049;SDS011;61798;48.048;-1.928;2022-11-24T10:58:47;21.92;;;3.83;;
45049;SDS011;61798;48.048;-1.928;2022-11-24T11:00:55;23.73;;;3.47;;
45049;SDS011;61798;48.048;-1.928;2022-11-24T11:03:15;23.05;;;4.68;;
45049;SDS011;61798;48.048;-1.928;2022-11-24T11:05:33;32.30;;;3.90;;
45049;SDS011;61798;48.048;-1.928;2022-11-24T11:07:47;24.15;;;3.78;;
45049;SDS011;61798;48.048;-1.928;2022-11-24T11:10:40;23.75;;;3.72;;
45049;SDS011;61798;48.048;-1.928;2022-11-24T11:12:30;28.10;;;4.20;;
45049;SDS011;61798;48.048;-1.928;2022-11-24T11:14:38;24.85;;;3.80;;
45049;SDS011;61798;48.048;-1.928;2022-11-24T11:16:55;20.85;;;2.85;;
45049;SDS011;61798;48.048;-1.928;2022-11-24T11:21:48;24.38;;;3.58;;
45049;SDS011;61798;48.048;-1.928;2022-11-24T11:24:13;21.55;;;4.43;;
45049;SDS011;61798;48.048;-1.928;2022-11-24T11:28:36;22.30;;;3.75;;
45049;SDS011;61798;48.048;-1.928;2022-11-24T11:30:53;26.83;;;4.00;;
45049;SDS011;61798;48.048;-1.928;2022-11-24T11:33:07;26.77;;;4.15;;
45049;SDS011;61798;48.048;-1.928;2022-11-24T11:35:27;19.55;;;3.00;;
45049;SDS011;61798;48.048;-1.928;2022-11-24T11:37:37;26.65;;;4.20;;
45049;SDS011;61798;48.048;-1.928;2022-11-24T11:39:45;28.55;;;4.25;;
45049;SDS011;61798;48.048;-1.928;2022-11-24T11:44:28;18.75;;;3.47;;
45049;SDS011;61798;48.048;-1.928;2022-11-24T11:46:41;30.42;;;4.30;;
45049;SDS011;61798;48.048;-1.928;2022-11-24T11:48:48;29.38;;;5.07;;
45049;SDS011;61798;48.048;-1.928;2022-11-24T11:50:59;31.15;;;4.82;;
45049;SDS011;61798;48.048;-1.928;2022-11-24T11:58:09;29.70;;;4.55;;
45049;SDS011;61798;48.048;-1.928;2022-11-24T12:00:28;33.88;;;4.50;;
45049;SDS011;61798;48.048;-1.928;2022-11-24T12:10:43;31.88;;;4.88;;
45049;SDS011;61798;48.048;-1.928;2022-11-24T12:15:30;33.92;;;4.00;;
45049;SDS011;61798;48.048;-1.928;2022-11-24T12:25:38;36.70;;;9.02;;
45049;SDS011;61798;48.048;-1.928;2022-11-24T12:30:16;45.05;;;11.15;;
45049;SDS011;61798;48.048;-1.928;2022-11-24T12:32:46;39.45;;;10.65;;
45049;SDS011;61798;48.048;-1.928;2022-11-24T12:35:19;41.85;;;11.82;;
45049;SDS011;61798;48.048;-1.928;2022-11-24T12:43:21;25.40;;;7.57;;
45049;SDS011;61798;48.048;-1.928;2022-11-24T12:46:30;32.97;;;7.80;;
45049;SDS011;61798;48.048;-1.928;2022-11-24T12:48:40;37.50;;;8.65;;
45049;SDS011;61798;48.048;-1.928;2022-11-24T12:50:47;29.73;;;7.30;;
45049;SDS011;61798;48.048;-1.928;2022-11-24T12:55:20;32.40;;;6.57;;
45049;SDS011;61798;48.048;-1.928;2022-11-24T12:57:35;32.47;;;7.45;;
45049;SDS011;61798;48.048;-1.928;2022-11-24T12:59:56;38.03;;;5.65;;
45049;SDS011;61798;48.048;-1.928;2022-11-24T13:05:25;28.75;;;6.68;;
45049;SDS011;61798;48.048;-1.928;2022-11-24T13:07:47;32.22;;;6.15;;
45049;SDS011;61798;48.048;-1.928;2022-11-24T13:12:29;36.17;;;7.75;;
45049;SDS011;61798;48.048;-1.928;2022-11-24T13:14:36;35.45;;;7.47;;
45049;SDS011;61798;48.048;-1.928;2022-11-24T13:16:51;31.45;;;7.18;;
45049;SDS011;61798;48.048;-1.928;2022-11-24T13:18:59;27.77;;;6.85;;
45049;SDS011;61798;48.048;-1.928;2022-11-24T13:23:34;33.28;;;7.47;;
45049;SDS011;61798;48.048;-1.928;2022-11-24T13:25:42;36.47;;;5.72;;
45049;SDS011;61798;48.048;-1.928;2022-11-24T13:31:09;28.20;;;5.38;;
45049;SDS011;61798;48.048;-1.928;2022-11-24T13:35:33;26.58;;;5.72;;
45049;SDS011;61798;48.048;-1.928;2022-11-24T13:39:48;26.60;;;6.95;;
45049;SDS011;61798;48.048;-1.928;2022-11-24T13:42:05;25.75;;;5.63;;
45049;SDS011;61798;48.048;-1.928;2022-11-24T13:44:24;20.73;;;4.60;;
45049;SDS011;61798;48.048;-1.928;2022-11-24T13:49:03;37.47;;;5.80;;
45049;SDS011;61798;48.048;-1.928;2022-11-24T13:51:21;30.33;;;6.20;;
45049;SDS011;61798;48.048;-1.928;2022-11-24T13:53:45;38.63;;;6.17;;
45049;SDS011;61798;48.048;-1.928;2022-11-24T13:55:58;32.25;;;5.28;;
45049;SDS011;61798;48.048;-1.928;2022-11-24T14:02:37;27.40;;;6.20;;
45049;SDS011;61798;48.048;-1.928;2022-11-24T14:04:47;28.05;;;4.78;;
45049;SDS011;61798;48.048;-1.928;2022-11-24T14:06:59;28.35;;;4.63;;
45049;SDS011;61798;48.048;-1.928;2022-11-24T14:11:32;22.52;;;5.63;;
45049;SDS011;61798;48.048;-1.928;2022-11-24T14:13:40;28.77;;;4.05;;
45049;SDS011;61798;48.048;-1.928;2022-11-24T14:18:17;28.77;;;3.67;;
45049;SDS011;61798;48.048;-1.928;2022-11-24T14:20:27;24.67;;;4.45;;
45049;SDS011;61798;48.048;-1.928;2022-11-24T14:22:35;23.60;;;4.78;;
45049;SDS011;61798;48.048;-1.928;2022-11-24T14:24:52;23.50;;;4.07;;
45049;SDS011;61798;48.048;-1.928;2022-11-24T14:27:00;22.33;;;4.65;;